createdAt,value
2017-11-18T00:00:19.771Z,88.47
2017-11-18T00:02:48.221Z,89.23
2017-11-18T00:05:17.434Z,98.87
2017-11-18T00:07:46.103Z,95.57
2017-11-18T00:10:15.300Z,102.30
2017-11-18T00:12:44.509Z,100.83
2017-11-18T00:15:14.402Z,88.80
2017-11-18T00:17:42.844Z,92.20
2017-11-18T00:20:11.387Z,95.20
2017-11-18T00:22:40.638Z,80.33
2017-11-18T00:25:09.089Z,66.50
2017-11-18T00:27:37.653Z,71.57
2017-11-18T00:30:06.866Z,85.37
2017-11-18T00:32:36.047Z,81.53
2017-11-18T00:35:05.264Z,75.53
2017-11-18T00:37:33.776Z,79.07
2017-11-18T00:40:01.557Z,117.83
2017-11-18T00:42:30.021Z,75.30
2017-11-18T00:44:58.113Z,82.07
2017-11-18T00:47:26.584Z,83.90
2017-11-18T00:49:55.022Z,91.37
2017-11-18T00:52:24.444Z,91.73
2017-11-18T00:54:52.901Z,89.87
2017-11-18T00:57:22.133Z,87.73
2017-11-18T00:59:50.556Z,83.97
2017-11-18T01:02:18.984Z,69.60
2017-11-18T01:04:47.447Z,80.70
2017-11-18T01:07:16.663Z,76.03
2017-11-18T01:09:45.904Z,74.63
2017-11-18T01:12:14.393Z,68.50
2017-11-18T01:14:42.849Z,71.30
2017-11-18T01:17:11.277Z,74.97
2017-11-18T01:19:39.784Z,77.20
2017-11-18T01:22:08.976Z,77.43
2017-11-18T01:24:38.361Z,72.73
2017-11-18T01:27:06.960Z,76.60
2017-11-18T01:29:36.181Z,61.97
2017-11-18T01:32:04.620Z,67.70
2017-11-18T01:34:32.904Z,65.03
2017-11-18T01:37:02.134Z,71.30
2017-11-18T01:39:31.325Z,64.93
2017-11-18T01:42:00.533Z,71.83
2017-11-18T01:44:29.724Z,62.17
2017-11-18T01:46:58.938Z,66.00
2017-11-18T01:49:28.164Z,64.03
2017-11-18T01:51:56.597Z,66.53
2017-11-18T01:54:25.048Z,76.63
2017-11-18T01:56:54.393Z,72.70
2017-11-18T01:59:23.584Z,59.83
2017-11-18T02:01:52.791Z,55.33
2017-11-18T02:04:20.913Z,78.07
2017-11-18T02:06:49.350Z,55.93
2017-11-18T02:09:18.284Z,65.67
2017-11-18T02:11:46.736Z,62.67
2017-11-18T02:14:15.249Z,59.53
2017-11-18T02:16:43.696Z,66.93
2017-11-18T02:19:12.251Z,65.90
2017-11-18T02:21:40.694Z,66.67
2017-11-18T02:24:08.612Z,58.20
2017-11-18T02:26:37.159Z,62.00
2017-11-18T02:29:06.528Z,54.40
2017-11-18T02:31:34.305Z,53.90
2017-11-18T02:34:02.085Z,60.20
2017-11-18T02:36:30.576Z,58.13
2017-11-18T02:38:59.011Z,54.97
2017-11-18T02:41:28.573Z,50.73
2017-11-18T02:43:57.022Z,64.80
2017-11-18T02:46:25.108Z,53.13
2017-11-18T02:48:53.226Z,53.77
2017-11-18T02:51:21.329Z,54.60
2017-11-18T02:53:49.470Z,50.00
2017-11-18T02:56:17.561Z,56.70
2017-11-18T02:58:46.105Z,49.60
2017-11-18T03:01:13.897Z,53.70
2017-11-18T03:03:42.358Z,54.73
2017-11-18T03:06:10.921Z,57.27
2017-11-18T03:08:39.357Z,57.73
2017-11-18T03:11:08.240Z,66.70
2017-11-18T03:13:36.710Z,67.50
2017-11-18T03:16:05.336Z,72.87
2017-11-18T03:18:33.791Z,66.40
2017-11-18T03:21:02.532Z,74.47
2017-11-18T03:23:30.970Z,102.10
2017-11-18T03:26:01.089Z,70.23
2017-11-18T03:28:30.223Z,76.00
2017-11-18T03:30:58.650Z,71.17
2017-11-18T03:33:27.092Z,82.00
2017-11-18T03:35:55.632Z,78.03
2017-11-18T03:38:24.844Z,88.47
2017-11-18T03:40:54.054Z,110.27
2017-11-18T03:43:22.668Z,132.60
2017-11-18T03:45:51.142Z,95.17
2017-11-18T03:48:19.587Z,114.97
2017-11-18T03:50:48.784Z,121.30
2017-11-18T03:53:18.011Z,83.97
2017-11-18T03:55:46.684Z,165.30
2017-11-18T03:58:15.147Z,147.07
2017-11-18T04:00:48.675Z,143.90
2017-11-18T04:03:17.142Z,179.70
2017-11-18T04:05:46.356Z,96.40
2017-11-18T04:08:14.780Z,90.63
2017-11-18T04:10:43.241Z,133.03
2017-11-18T04:13:11.341Z,112.07
2017-11-18T04:15:39.477Z,89.33
2017-11-18T04:18:08.104Z,126.60
2017-11-18T04:20:36.446Z,79.00
2017-11-18T04:23:04.566Z,128.13
2017-11-18T04:25:33.033Z,85.43
2017-11-18T04:28:01.664Z,80.17
2017-11-18T04:30:30.880Z,101.10
2017-11-18T04:32:59.329Z,78.60
2017-11-18T04:35:28.260Z,78.63
2017-11-18T04:37:56.753Z,93.23
2017-11-18T04:40:25.201Z,68.67
2017-11-18T04:42:54.415Z,79.03
2017-11-18T04:45:22.503Z,61.50
2017-11-18T04:47:50.954Z,55.50
2017-11-18T04:50:19.049Z,47.60
2017-11-18T04:52:47.501Z,54.20
2017-11-18T04:55:16.720Z,40.07
2017-11-18T04:57:44.493Z,46.30
2017-11-18T05:00:12.596Z,39.93
2017-11-18T05:02:41.040Z,51.33
2017-11-18T05:05:09.472Z,49.90
2017-11-18T05:07:37.904Z,38.10
2017-11-18T05:10:05.668Z,43.33
2017-11-18T05:12:34.108Z,41.63
2017-11-18T05:15:02.754Z,37.97
2017-11-18T05:17:31.199Z,39.93
2017-11-18T05:20:00.405Z,35.53
2017-11-18T05:22:29.596Z,43.80
2017-11-18T05:24:58.788Z,38.40
2017-11-18T05:27:26.896Z,31.00
2017-11-18T05:29:55.344Z,41.80
2017-11-18T05:32:23.886Z,42.53
2017-11-18T05:34:52.318Z,40.47
2017-11-18T05:37:21.537Z,31.07
2017-11-18T05:39:50.007Z,34.50
2017-11-18T05:42:18.972Z,33.27
2017-11-18T05:44:47.407Z,32.80
2017-11-18T05:47:15.880Z,32.03
2017-11-18T05:49:44.599Z,27.37
2017-11-18T05:52:13.048Z,36.57
2017-11-18T05:54:41.479Z,31.70
2017-11-18T05:57:09.933Z,29.93
2017-11-18T05:59:38.034Z,31.23
2017-11-18T06:02:06.140Z,27.80
2017-11-18T06:04:35.390Z,32.20
2017-11-18T06:07:03.829Z,29.70
2017-11-18T06:09:32.263Z,22.63
2017-11-18T06:12:00.929Z,27.90
2017-11-18T06:14:29.377Z,28.73
2017-11-18T06:16:58.581Z,29.00
2017-11-18T06:19:27.032Z,28.67
2017-11-18T06:21:55.269Z,34.30
2017-11-18T06:24:23.713Z,22.33
2017-11-18T06:26:53.001Z,27.50
2017-11-18T06:29:21.530Z,27.27
2017-11-18T06:31:50.889Z,23.10
2017-11-18T06:34:20.114Z,24.67
2017-11-18T06:36:49.525Z,24.67
2017-11-18T06:39:17.972Z,21.57
2017-11-18T06:41:46.404Z,22.37
2017-11-18T06:44:14.896Z,22.20
2017-11-18T06:46:43.348Z,25.60
2017-11-18T06:49:12.754Z,24.53
2017-11-18T06:51:41.205Z,21.00
2017-11-18T06:54:09.638Z,19.70
2017-11-18T06:56:38.085Z,19.20
2017-11-18T06:59:07.280Z,23.03
2017-11-18T07:01:35.793Z,20.93
2017-11-18T07:04:04.226Z,19.77
2017-11-18T07:06:32.670Z,19.73
2017-11-18T07:09:01.125Z,18.63
2017-11-18T07:11:29.554Z,19.63
2017-11-18T07:13:57.992Z,16.20
2017-11-18T07:16:26.416Z,18.90
2017-11-18T07:18:54.872Z,14.97
2017-11-18T07:21:23.309Z,15.70
2017-11-18T07:23:52.528Z,14.90
2017-11-18T07:26:20.989Z,15.07
2017-11-18T07:28:50.197Z,19.40
2017-11-18T07:31:19.452Z,19.50
2017-11-18T07:33:47.908Z,19.20
2017-11-18T07:36:16.361Z,17.30
2017-11-18T07:38:45.561Z,15.37
2017-11-18T07:41:14.440Z,16.03
2017-11-18T07:43:42.872Z,17.33
2017-11-18T07:46:11.324Z,14.57
2017-11-18T07:48:40.709Z,15.80
2017-11-18T07:51:09.916Z,15.80
2017-11-18T07:53:39.116Z,16.53
2017-11-18T07:56:08.342Z,15.77
2017-11-18T07:58:36.797Z,14.33
2017-11-18T08:01:06.021Z,18.90
2017-11-18T08:03:34.501Z,18.60
2017-11-18T08:06:02.989Z,14.83
2017-11-18T08:08:31.460Z,15.80
2017-11-18T08:10:59.886Z,14.40
2017-11-18T08:13:28.350Z,13.70
2017-11-18T08:15:56.825Z,14.10
2017-11-18T08:18:25.277Z,15.40
2017-11-18T08:20:53.716Z,14.37
2017-11-18T08:23:22.172Z,14.27
2017-11-18T08:25:50.810Z,15.47
2017-11-18T08:28:19.248Z,18.10
2017-11-18T08:30:47.670Z,20.70
2017-11-18T08:33:16.112Z,23.40
2017-11-18T08:35:44.567Z,20.27
2017-11-18T08:38:12.988Z,19.37
2017-11-18T08:40:41.453Z,21.07
2017-11-18T08:43:10.552Z,18.30
2017-11-18T08:45:39.033Z,19.27
2017-11-18T08:48:07.470Z,20.37
2017-11-18T08:50:36.677Z,21.37
2017-11-18T08:53:05.888Z,19.50
2017-11-18T08:55:33.720Z,19.67
2017-11-18T08:58:02.172Z,18.23
2017-11-18T09:00:30.261Z,18.00
2017-11-18T09:02:58.706Z,18.17
2017-11-18T09:05:27.145Z,16.50
2017-11-18T09:07:55.712Z,17.97
2017-11-18T09:10:24.155Z,20.30
2017-11-18T09:12:52.608Z,18.57
2017-11-18T09:15:21.837Z,17.63
2017-11-18T09:17:50.292Z,18.10
2017-11-18T09:20:19.517Z,15.80
2017-11-18T09:22:47.961Z,13.17
2017-11-18T09:25:17.313Z,13.60
2017-11-18T09:27:45.768Z,12.60
2017-11-18T09:30:14.198Z,13.70
2017-11-18T09:32:42.649Z,10.83
2017-11-18T09:35:10.520Z,11.13
2017-11-18T09:37:38.980Z,11.50
2017-11-18T09:40:07.415Z,7.40
2017-11-18T09:42:35.856Z,8.53
2017-11-18T09:45:04.285Z,8.10
2017-11-18T09:47:32.729Z,6.00
2017-11-18T09:50:01.161Z,5.77
2017-11-18T09:52:29.601Z,9.20
2017-11-18T09:54:58.040Z,7.67
2017-11-18T09:57:27.245Z,7.33
2017-11-18T09:59:55.696Z,6.50
2017-11-18T10:02:24.132Z,6.03
2017-11-18T10:04:52.573Z,7.63
2017-11-18T10:07:21.457Z,8.80
2017-11-18T10:09:50.088Z,6.40
2017-11-18T10:12:18.539Z,6.73
2017-11-18T10:14:47.741Z,8.13
2017-11-18T10:17:16.956Z,8.03
2017-11-18T10:19:45.401Z,7.07
2017-11-18T10:22:13.873Z,7.23
2017-11-18T10:24:42.321Z,9.00
2017-11-18T10:27:10.756Z,9.20
2017-11-18T10:29:39.993Z,6.50
2017-11-18T10:32:08.452Z,8.40
2017-11-18T10:34:37.658Z,5.97
2017-11-18T10:37:05.917Z,7.90
2017-11-18T10:39:35.159Z,8.53
2017-11-18T10:42:03.237Z,6.53
2017-11-18T10:44:31.656Z,6.20
2017-11-18T10:47:00.108Z,6.80
2017-11-18T10:49:28.527Z,5.80
2017-11-18T10:51:57.749Z,6.07
2017-11-18T10:54:26.183Z,6.33
2017-11-18T10:56:54.624Z,5.53
2017-11-18T10:59:22.720Z,5.63
2017-11-18T11:01:51.157Z,6.80
2017-11-18T11:04:20.014Z,5.50
2017-11-18T11:06:48.478Z,5.00
2017-11-18T11:09:16.593Z,5.90
2017-11-18T11:11:44.723Z,6.03
2017-11-18T11:14:13.160Z,5.57
2017-11-18T11:16:42.188Z,6.33
2017-11-18T11:19:10.609Z,5.93
2017-11-18T11:21:39.064Z,7.10
2017-11-18T11:24:07.537Z,6.50
2017-11-18T11:26:36.016Z,7.30
2017-11-18T11:29:04.446Z,6.20
2017-11-18T11:31:32.882Z,5.37
2017-11-18T11:34:01.353Z,5.20
2017-11-18T11:36:29.804Z,6.03
2017-11-18T11:38:59.018Z,4.90
2017-11-18T11:41:27.931Z,4.10
2017-11-18T11:43:56.389Z,4.57
2017-11-18T11:46:25.268Z,4.10
2017-11-18T11:48:54.483Z,4.40
2017-11-18T11:51:23.628Z,3.43
2017-11-18T11:53:52.053Z,5.70
2017-11-18T11:56:20.736Z,5.00
2017-11-18T11:58:49.584Z,4.67
2017-11-18T12:01:18.045Z,6.03
2017-11-18T12:03:46.540Z,5.83
2017-11-18T12:06:14.764Z,5.63
2017-11-18T12:08:43.962Z,5.30
2017-11-18T12:11:13.333Z,5.77
2017-11-18T12:13:41.758Z,7.40
2017-11-18T12:16:10.974Z,8.40
2017-11-18T12:18:39.409Z,5.17
2017-11-18T12:21:07.216Z,6.40
2017-11-18T12:23:36.434Z,9.30
2017-11-18T12:26:04.870Z,5.50
2017-11-18T12:28:34.185Z,6.90
2017-11-18T12:31:03.385Z,6.77
2017-11-18T12:33:32.584Z,7.90
2017-11-18T12:36:01.775Z,7.73
2017-11-18T12:38:30.973Z,7.93
2017-11-18T12:40:59.400Z,6.43
2017-11-18T12:43:27.864Z,6.90
2017-11-18T12:45:55.704Z,6.03
2017-11-18T12:48:24.925Z,8.03
2017-11-18T12:50:53.481Z,7.30
2017-11-18T12:53:21.919Z,8.33
2017-11-18T12:55:50.385Z,6.60
2017-11-18T12:58:18.842Z,7.20
2017-11-18T13:00:47.912Z,7.00
2017-11-18T13:03:16.418Z,6.43
2017-11-18T13:05:45.642Z,8.20
2017-11-18T13:08:13.764Z,6.10
2017-11-18T13:10:42.192Z,6.70
2017-11-18T13:13:10.637Z,6.87
2017-11-18T13:15:39.104Z,7.00
2017-11-18T13:18:07.601Z,7.13
2017-11-18T13:20:36.065Z,7.20
2017-11-18T13:23:04.516Z,8.10
2017-11-18T13:25:33.054Z,7.33
2017-11-18T13:28:01.490Z,6.43
2017-11-18T13:30:30.000Z,7.80
2017-11-18T13:32:58.613Z,9.23
2017-11-18T13:35:27.815Z,9.63
2017-11-18T13:37:57.031Z,7.63
2017-11-18T13:40:26.257Z,11.57
2017-11-18T13:42:54.359Z,9.67
2017-11-18T13:45:22.799Z,10.47
2017-11-18T13:47:51.316Z,9.70
2017-11-18T13:50:20.668Z,11.93
2017-11-18T13:52:49.877Z,10.00
2017-11-18T13:55:19.166Z,9.33
2017-11-18T13:57:48.364Z,9.47
2017-11-18T14:00:17.623Z,9.47
2017-11-18T14:02:45.766Z,10.00
2017-11-18T14:05:13.534Z,8.90
2017-11-18T14:07:41.978Z,9.37
2017-11-18T14:10:10.404Z,9.80
2017-11-18T14:12:38.890Z,9.47
2017-11-18T14:15:07.336Z,9.40
2017-11-18T14:17:36.576Z,8.80
2017-11-18T14:20:05.361Z,8.27
2017-11-18T14:22:34.341Z,8.73
2017-11-18T14:25:03.151Z,11.70
2017-11-18T14:27:32.021Z,7.90
2017-11-18T14:30:00.834Z,10.13
2017-11-18T14:32:29.804Z,8.23
2017-11-18T14:34:58.722Z,8.10
2017-11-18T14:37:27.789Z,8.70
2017-11-18T14:39:55.898Z,9.30
2017-11-18T14:42:24.007Z,8.57
2017-11-18T14:44:52.459Z,9.23
2017-11-18T14:47:21.391Z,10.47
2017-11-18T14:49:50.164Z,11.57
2017-11-18T14:52:18.272Z,11.73
2017-11-18T14:54:46.204Z,8.70
2017-11-18T14:57:14.461Z,10.20
2017-11-18T14:59:42.744Z,10.83
2017-11-18T15:02:10.348Z,10.30
2017-11-18T15:04:39.068Z,11.03
2017-11-18T15:07:06.990Z,11.03
2017-11-18T15:09:35.717Z,12.40
2017-11-18T15:12:03.627Z,11.17
2017-11-18T15:14:36.780Z,9.70
2017-11-18T15:17:09.926Z,13.17
2017-11-18T15:19:54.139Z,12.13
2017-11-18T15:22:22.373Z,12.80
2017-11-18T15:24:56.950Z,12.47
2017-11-18T15:27:30.868Z,9.17
2017-11-18T15:29:59.769Z,11.43
2017-11-18T15:32:31.568Z,10.13
2017-11-18T15:35:02.032Z,13.60
2017-11-18T15:37:35.693Z,10.63
2017-11-18T15:40:03.595Z,12.77
2017-11-18T15:42:32.249Z,10.88
2017-11-18T15:45:11.797Z,9.98
2017-11-18T15:47:42.861Z,10.00
2017-11-18T15:50:13.857Z,7.80
2017-11-18T15:52:49.147Z,10.63
2017-11-18T15:55:34.718Z,11.12
2017-11-18T15:58:05.428Z,10.73
2017-11-18T16:00:49.394Z,17.20
2017-11-18T16:03:20.012Z,8.13
2017-11-18T16:05:48.703Z,13.23
2017-11-18T16:08:27.261Z,8.40
2017-11-18T16:10:55.528Z,9.48
2017-11-18T16:13:24.350Z,10.40
2017-11-18T16:15:52.716Z,11.55
2017-11-18T16:18:20.937Z,9.10
2017-11-18T16:20:49.325Z,12.37
2017-11-18T16:23:18.533Z,8.07
2017-11-18T16:25:47.397Z,12.37
2017-11-18T16:28:15.456Z,10.43
2017-11-18T16:30:43.253Z,13.33
2017-11-18T16:33:11.960Z,9.70
2017-11-18T16:35:40.367Z,12.75
2017-11-18T16:38:09.517Z,11.75
2017-11-18T16:40:37.583Z,12.90
2017-11-18T16:43:06.035Z,9.35
2017-11-18T16:45:33.839Z,17.37
2017-11-18T16:48:02.638Z,12.07
2017-11-18T16:50:31.494Z,10.57
2017-11-18T16:52:59.558Z,14.73
2017-11-18T16:55:27.336Z,9.63
2017-11-18T16:57:56.065Z,10.05
2017-11-18T17:00:23.840Z,9.47
2017-11-18T17:02:51.961Z,13.53
2017-11-18T17:05:19.729Z,12.83
2017-11-18T17:07:47.517Z,10.83
2017-11-18T17:10:16.084Z,13.37
2017-11-18T17:12:43.867Z,10.73
2017-11-18T17:15:12.845Z,18.43
2017-11-18T17:17:40.633Z,15.60
2017-11-18T17:20:09.191Z,9.40
2017-11-18T17:22:37.313Z,11.60
2017-11-18T17:25:07.293Z,11.57
2017-11-18T17:27:35.497Z,14.63
2017-11-18T17:30:03.636Z,13.90
2017-11-18T17:32:31.473Z,9.97
2017-11-18T17:34:59.275Z,12.33
2017-11-18T17:37:27.048Z,10.60
2017-11-18T17:39:55.603Z,12.57
2017-11-18T17:42:23.463Z,9.30
2017-11-18T17:44:51.240Z,15.70
2017-11-18T17:47:19.056Z,11.77
2017-11-18T17:49:47.156Z,10.50
2017-11-18T17:52:15.307Z,10.50
2017-11-18T17:54:43.526Z,10.97
2017-11-18T17:57:11.585Z,10.82
2017-11-18T17:59:40.728Z,12.67
2017-11-18T18:02:09.293Z,16.47
2017-11-18T18:04:37.069Z,12.57
2017-11-18T18:07:04.857Z,14.20
2017-11-18T18:09:33.651Z,15.43
2017-11-18T18:12:01.787Z,15.70
2017-11-18T18:14:29.903Z,12.73
2017-11-18T18:16:58.348Z,12.90
2017-11-18T18:19:26.889Z,9.90
2017-11-18T18:21:55.366Z,11.40
2017-11-18T18:24:23.973Z,10.57
2017-11-18T18:26:52.421Z,8.50
2017-11-18T18:29:20.848Z,9.47
2017-11-18T18:31:49.305Z,7.87
2017-11-18T18:34:17.762Z,14.30
2017-11-18T18:36:46.969Z,10.60
2017-11-18T18:39:15.456Z,11.20
2017-11-18T18:41:43.910Z,15.10
2017-11-18T18:44:12.789Z,19.77
2017-11-18T18:46:40.927Z,9.53
2017-11-18T18:49:09.368Z,7.63
2017-11-18T18:51:38.213Z,7.30
2017-11-18T18:54:06.787Z,13.80
2017-11-18T18:56:34.561Z,11.13
2017-11-18T18:59:03.025Z,10.20
2017-11-18T19:01:31.484Z,11.73
2017-11-18T19:03:59.937Z,8.00
2017-11-18T19:06:28.420Z,10.13
2017-11-18T19:08:57.713Z,8.17
2017-11-18T19:11:26.146Z,9.40
2017-11-18T19:13:54.690Z,11.13
2017-11-18T19:16:23.533Z,7.93
2017-11-18T19:18:52.006Z,7.90
2017-11-18T19:21:20.454Z,10.13
2017-11-18T19:23:49.682Z,9.23
2017-11-18T19:26:18.181Z,9.13
2017-11-18T19:28:46.854Z,6.90
2017-11-18T19:31:15.310Z,11.00
2017-11-18T19:33:44.519Z,9.63
2017-11-18T19:36:12.978Z,7.90
2017-11-18T19:38:42.200Z,7.97
2017-11-18T19:41:12.254Z,8.20
2017-11-18T19:43:40.737Z,8.73
2017-11-18T19:46:09.188Z,8.03
2017-11-18T19:48:37.474Z,7.40
2017-11-18T19:51:05.929Z,9.70
2017-11-18T19:53:35.140Z,8.60
2017-11-18T19:56:03.584Z,9.47
2017-11-18T19:58:32.026Z,8.63
2017-11-18T20:01:00.503Z,9.00
2017-11-18T20:03:28.942Z,7.40
2017-11-18T20:05:56.736Z,11.47
2017-11-18T20:08:24.644Z,7.47
2017-11-18T20:10:53.101Z,8.40
2017-11-18T20:13:21.572Z,9.93
2017-11-18T20:15:49.367Z,8.40
2017-11-18T20:18:17.838Z,9.47
2017-11-18T20:20:46.297Z,6.97
2017-11-18T20:23:15.190Z,9.20
2017-11-18T20:25:43.052Z,6.83
2017-11-18T20:28:11.590Z,6.60
2017-11-18T20:30:40.836Z,6.20
2017-11-18T20:33:10.229Z,8.17
2017-11-18T20:35:38.896Z,9.07
2017-11-18T20:38:07.701Z,8.07
2017-11-18T20:40:36.911Z,8.13
2017-11-18T20:43:06.156Z,14.67
2017-11-18T20:45:34.648Z,10.53
2017-11-18T20:48:03.389Z,10.48
2017-11-18T20:50:32.182Z,12.05
2017-11-18T20:53:00.911Z,13.27
2017-11-18T20:55:29.632Z,9.77
2017-11-18T20:57:58.374Z,10.38
2017-11-18T21:00:27.140Z,8.55
2017-11-18T21:02:55.856Z,9.93
2017-11-18T21:05:25.351Z,10.23
2017-11-18T21:07:53.816Z,11.60
2017-11-18T21:10:22.548Z,10.90
2017-11-18T21:12:51.244Z,8.10
2017-11-18T21:15:19.651Z,10.57
2017-11-18T21:17:48.382Z,9.65
2017-11-18T21:20:17.915Z,8.30
2017-11-18T21:22:46.657Z,6.90
2017-11-18T21:25:15.402Z,10.60
2017-11-18T21:27:45.509Z,9.93
2017-11-18T21:30:14.220Z,10.40
2017-11-18T21:32:42.941Z,7.82
2017-11-18T21:35:11.650Z,11.40
2017-11-18T21:37:41.169Z,10.93
2017-11-18T21:40:09.986Z,10.00
2017-11-18T21:42:38.731Z,12.10
2017-11-18T21:45:08.206Z,11.80
2017-11-18T21:47:36.929Z,10.88
2017-11-18T21:50:06.459Z,10.23
2017-11-18T21:52:35.179Z,12.60
2017-11-18T21:55:03.610Z,11.88
2017-11-18T21:57:33.123Z,10.70
2017-11-18T22:00:02.622Z,9.15
2017-11-18T22:02:32.329Z,9.85
2017-11-18T22:05:01.818Z,14.32
2017-11-18T22:07:30.559Z,9.02
2017-11-18T22:09:59.331Z,10.70
2017-11-18T22:12:28.810Z,9.45
2017-11-18T22:14:57.533Z,9.15
2017-11-18T22:17:26.705Z,9.77
2017-11-18T22:19:56.205Z,11.90
2017-11-18T22:22:24.897Z,11.35
2017-11-18T22:24:54.052Z,16.27
2017-11-18T22:27:22.772Z,14.45
2017-11-18T22:29:51.131Z,8.93
2017-11-18T22:32:20.018Z,16.05
2017-11-18T22:34:48.719Z,20.20
2017-11-18T22:37:17.624Z,8.57
2017-11-18T22:39:46.339Z,13.35
2017-11-18T22:42:14.797Z,16.03
2017-11-18T22:44:43.508Z,10.55
2017-11-18T22:47:12.270Z,14.15
2017-11-18T22:49:41.000Z,10.50
2017-11-18T22:52:09.457Z,17.77
2017-11-18T22:54:38.954Z,12.50
2017-11-18T22:57:07.860Z,10.00
2017-11-18T22:59:36.623Z,9.80
2017-11-18T23:02:05.330Z,16.37
2017-11-18T23:04:34.825Z,9.60
2017-11-18T23:07:03.533Z,12.68
2017-11-18T23:09:33.031Z,11.82
2017-11-18T23:12:02.493Z,8.80
2017-11-18T23:14:31.223Z,7.28
2017-11-18T23:17:00.701Z,7.53
2017-11-18T23:19:29.400Z,8.18
2017-11-18T23:21:58.153Z,9.02
2017-11-18T23:24:26.854Z,7.85
2017-11-18T23:26:55.567Z,7.37
2017-11-18T23:29:24.309Z,10.75
2017-11-18T23:31:53.045Z,9.70
2017-11-18T23:34:21.739Z,8.63
2017-11-18T23:36:50.196Z,6.93
2017-11-18T23:39:18.916Z,6.40
2017-11-18T23:41:48.509Z,11.38
2017-11-18T23:44:17.215Z,8.50
2017-11-18T23:46:46.333Z,7.80
2017-11-18T23:49:14.700Z,6.25
2017-11-18T23:51:43.888Z,7.55
2017-11-18T23:54:13.413Z,7.53
2017-11-18T23:56:43.071Z,5.70
2017-11-18T23:59:11.741Z,6.72
